Time;durP1;ratioP1;P1;durP2;ratioP2;P2;SDS_P1;SDS_P2;PMS_P1;PMS_P2;Temp;Humidity;BMP_temperature;BMP_pressure;BME280_temperature;BME280_humidity;BME280_pressure;Samples;Min_cycle;Max_cycle;Signal;HPM_P1;HPM_P2
2023/10/28 00:01:17;;;;;;;;;;;;;;;9.13;100.00;98780.06;5077599;28;19962;-65
2023/10/28 00:04:23;;;;;;;;;;;;;;;9.16;100.00;98782.44;5076631;28;19947;-66
2023/10/28 00:07:26;;;;;;;;;;;;;;;9.23;100.00;98781.03;5076530;28;19927;-66
2023/10/28 00:10:31;;;;;;;;;;;;;;;9.26;100.00;98784.25;5076938;28;19923;-66
2023/10/28 00:13:35;;;;;;;;;;;;;;;9.25;100.00;98784.34;5076653;28;20074;-66
2023/10/28 00:16:38;;;;;;;;;;;;;;;9.19;100.00;98783.03;5076487;28;19962;-66
2023/10/28 00:19:43;;;;;;;;;;;;;;;9.24;100.00;98775.69;5076432;28;20426;-66
2023/10/28 00:22:46;;;;;;;;;;;;;;;9.18;100.00;98783.97;5076730;28;19923;-66
2023/10/28 00:25:50;;;;;;;;;;;;;;;9.23;100.00;98775.81;5076395;28;19963;-66
2023/10/28 00:28:53;;;;;;;;;;;;;;;9.29;100.00;98783.19;5076178;28;19939;-66
2023/10/28 00:31:56;;;;;;;;;;;;;;;9.24;100.00;98780.91;5075243;28;19931;-66
2023/10/28 00:34:59;;;;;;;;;;;;;;;9.28;100.00;98778.91;5075794;28;19923;-66
2023/10/28 00:38:03;;;;;;;;;;;;;;;9.31;100.00;98789.09;5076187;28;19930;-66
2023/10/28 00:41:06;;;;;;;;;;;;;;;9.23;100.00;98786.25;5076082;28;19927;-66
2023/10/28 00:44:09;;;;;;;;;;;;;;;9.30;100.00;98784.84;5075101;28;20015;-66
2023/10/28 00:47:12;;;;;;;;;;;;;;;9.30;100.00;98782.22;5076010;28;20423;-66
2023/10/28 00:50:16;;;;;;;;;;;;;;;9.29;100.00;98783.19;5075946;28;19923;-65
2023/10/28 00:53:19;;;;;;;;;;;;;;;9.28;100.00;98784.09;5075376;28;19923;-66
2023/10/28 00:56:22;;;;;;;;;;;;;;;9.32;100.00;98785.56;5074878;28;19970;-66
2023/10/28 00:59:27;;;;;;;;;;;;;;;9.37;100.00;98782.59;5075850;28;19923;-66
2023/10/28 01:02:30;;;;;;;;;;;;;;;9.39;100.00;98785.94;5075111;28;19927;-66
2023/10/28 01:05:34;;;;;;;;;;;;;;;9.37;100.00;98783.44;5074908;28;20288;-66
2023/10/28 01:08:37;;;;;;;;;;;;;;;9.35;100.00;98790.56;5075068;28;20012;-66
2023/10/28 01:11:40;;;;;;;;;;;;;;;9.32;100.00;98782.97;5075511;28;19923;-66
2023/10/28 01:14:43;;;;;;;;;;;;;;;9.34;100.00;98778.44;5075506;28;20445;-66
2023/10/28 01:17:47;;;;;;;;;;;;;;;9.39;100.00;98781.53;5075398;28;20034;-66
2023/10/28 01:20:51;;;;;;;;;;;;;;;9.40;100.00;98782.38;5075693;28;19942;-66
2023/10/28 01:23:56;;;;;;;;;;;;;;;9.39;100.00;98781.53;5075335;28;20284;-66
2023/10/28 01:27:02;;;;;;;;;;;;;;;9.43;100.00;98775.13;5075292;28;20061;-66
2023/10/28 01:30:06;;;;;;;;;;;;;;;9.42;100.00;98781.31;5074234;28;19962;-66
2023/10/28 01:33:09;;;;;;;;;;;;;;;9.44;100.00;98784.63;5074221;28;20054;-66
2023/10/28 01:36:12;;;;;;;;;;;;;;;9.45;100.00;98793.31;5074306;28;19967;-66
2023/10/28 01:39:15;;;;;;;;;;;;;;;9.42;100.00;98786.53;5074264;28;20311;-66
2023/10/28 01:42:19;;;;;;;;;;;;;;;9.44;100.00;98789.84;5075260;28;19970;-66
2023/10/28 01:45:23;;;;;;;;;;;;;;;9.41;100.00;98789.25;5073976;28;20295;-66
2023/10/28 01:48:26;;;;;;;;;;;;;;;9.49;100.00;98792.94;5074744;28;20180;-66
2023/10/28 01:51:29;;;;;;;;;;;;;;;9.48;100.00;98791.28;5074825;28;19923;-66
2023/10/28 01:54:33;;;;;;;;;;;;;;;9.47;100.00;98797.44;5075016;28;20105;-66
2023/10/28 01:57:37;;;;;;;;;;;;;;;9.49;100.00;98797.34;5074673;28;20296;-66
2023/10/28 02:00:40;;;;;;;;;;;;;;;9.49;100.00;98797.34;5073725;28;19943;-66
2023/10/28 02:03:43;;;;;;;;;;;;;;;9.54;100.00;98796.03;5073819;28;19969;-66
2023/10/28 02:06:49;;;;;;;;;;;;;;;9.58;100.00;98793.22;5074774;28;19977;-66
2023/10/28 02:09:52;;;;;;;;;;;;;;;9.53;100.00;98803.97;5073572;28;19957;-66
2023/10/28 02:12:56;;;;;;;;;;;;;;;9.22;100.00;98795.84;5074597;28;19923;-66
2023/10/28 02:15:59;;;;;;;;;;;;;;;9.18;100.00;98809.22;5073455;28;20291;-66
2023/10/28 02:19:03;;;;;;;;;;;;;;;9.14;100.00;98813.00;5074162;28;20007;-67
2023/10/28 02:22:07;;;;;;;;;;;;;;;9.36;100.00;98813.06;5073304;28;20058;-67
2023/10/28 02:25:10;;;;;;;;;;;;;;;9.52;100.00;98812.75;5073364;28;19974;-66
2023/10/28 02:28:13;;;;;;;;;;;;;;;9.61;100.00;98819.91;5073980;28;19958;-66
2023/10/28 02:31:16;;;;;;;;;;;;;;;9.66;100.00;98816.94;5073818;28;19974;-66
2023/10/28 02:34:20;;;;;;;;;;;;;;;9.76;100.00;98810.06;5074178;28;20382;-66
2023/10/28 02:37:23;;;;;;;;;;;;;;;9.74;100.00;98814.59;5073035;28;19923;-66
2023/10/28 02:40:26;;;;;;;;;;;;;;;9.87;100.00;98817.91;5073814;28;20512;-66
2023/10/28 02:43:29;;;;;;;;;;;;;;;9.92;100.00;98820.16;5073800;28;19924;-67
2023/10/28 02:46:32;;;;;;;;;;;;;;;10.00;100.00;98816.00;5072747;28;19989;-67
2023/10/28 02:49:36;;;;;;;;;;;;;;;9.91;100.00;98821.94;5072937;28;19966;-66
2023/10/28 02:52:38;;;;;;;;;;;;;;;10.05;100.00;98820.91;5073816;28;19922;-67
2023/10/28 02:55:41;;;;;;;;;;;;;;;10.21;100.00;98828.34;5072734;28;19922;-66
2023/10/28 02:58:45;;;;;;;;;;;;;;;10.27;100.00;98824.47;5072752;28;19924;-66
2023/10/28 03:01:48;;;;;;;;;;;;;;;10.33;100.00;98830.03;5073570;28;19982;-67
2023/10/28 03:04:53;;;;;;;;;;;;;;;10.12;100.00;98836.91;5072602;28;19926;-67
2023/10/28 03:07:56;;;;;;;;;;;;;;;10.23;100.00;98844.75;5073416;28;20057;-67
2023/10/28 03:11:00;;;;;;;;;;;;;;;10.31;100.00;98846.81;5073451;28;19939;-66
2023/10/28 03:14:04;;;;;;;;;;;;;;;10.31;100.00;98846.81;5073399;28;20003;-67
2023/10/28 03:17:07;;;;;;;;;;;;;;;10.11;100.00;98851.72;5073376;28;19924;-67
2023/10/28 03:20:11;;;;;;;;;;;;;;;10.13;100.00;98846.41;5073337;28;19938;-66
2023/10/28 03:23:15;;;;;;;;;;;;;;;10.08;100.00;98856.38;5073250;28;19938;-66
2023/10/28 03:26:18;;;;;;;;;;;;;;;10.05;100.00;98864.44;5073206;28;20069;-67
2023/10/28 03:29:21;;;;;;;;;;;;;;;10.15;100.00;98855.78;5073445;28;19924;-67
2023/10/28 03:32:24;;;;;;;;;;;;;;;10.11;100.00;98858.75;5073004;28;19974;-67
2023/10/28 03:35:27;;;;;;;;;;;;;;;10.18;100.00;98857.34;5072302;28;19965;-66
2023/10/28 03:38:33;;;;;;;;;;;;;;;10.16;100.00;98861.84;5073157;28;19970;-67
2023/10/28 03:41:37;;;;;;;;;;;;;;;10.16;100.00;98849.63;5073135;28;19924;-67
2023/10/28 03:44:40;;;;;;;;;;;;;;;10.08;100.00;98858.97;5073064;28;19928;-66
2023/10/28 03:47:43;;;;;;;;;;;;;;;10.15;100.00;98868.03;5073137;28;20339;-67
2023/10/28 03:50:55;;;;;;;;;;;;;;;10.13;100.00;98862.91;5073071;28;19990;-67
2023/10/28 03:53:58;;;;;;;;;;;;;;;10.08;100.00;98867.63;5073055;28;19931;-66
2023/10/28 03:57:01;;;;;;;;;;;;;;;10.14;100.00;98871.56;5072945;28;19930;-67
2023/10/28 04:00:08;;;;;;;;;;;;;;;10.13;100.00;98865.53;5072874;28;19922;-67
2023/10/28 04:03:15;;;;;;;;;;;;;;;10.15;100.00;98868.84;5072850;28;19927;-67
2023/10/28 04:06:18;;;;;;;;;;;;;;;10.19;100.00;98866.84;5072793;28;19928;-67
2023/10/28 04:09:21;;;;;;;;;;;;;;;10.22;100.00;98874.44;5072845;28;19942;-67
2023/10/28 04:12:24;;;;;;;;;;;;;;;10.12;100.00;98873.47;5072810;28;19961;-67
2023/10/28 04:15:27;;;;;;;;;;;;;;;10.10;100.00;98876.19;5072786;28;19966;-67
2023/10/28 04:18:30;;;;;;;;;;;;;;;10.09;100.00;98876.34;5072661;28;20335;-67
2023/10/28 04:21:33;;;;;;;;;;;;;;;10.01;100.00;98882.13;5072703;28;19998;-67
2023/10/28 04:24:36;;;;;;;;;;;;;;;10.01;100.00;98890.78;5072943;28;19932;-67
2023/10/28 04:27:40;;;;;;;;;;;;;;;10.09;100.00;98878.94;5073938;28;19923;-67
2023/10/28 04:30:53;;;;;;;;;;;;;;;10.15;100.00;98883.69;5076404;28;20445;-66
2023/10/28 04:33:56;;;;;;;;;;;;;;;10.20;100.00;98868.50;5076134;28;20023;-67
2023/10/28 04:36:59;;;;;;;;;;;;;;;10.15;100.00;98879.31;5076218;28;19922;-67
2023/10/28 04:40:05;;;;;;;;;;;;;;;10.14;100.00;98876.78;5076501;28;19927;-66
2023/10/28 04:43:08;;;;;;;;;;;;;;;10.11;100.00;98877.03;5076136;28;19978;-66
2023/10/28 04:46:11;;;;;;;;;;;;;;;10.12;100.00;98874.31;5075966;28;19927;-66
2023/10/28 04:49:14;;;;;;;;;;;;;;;10.17;100.00;98866.94;5076013;28;20295;-66
2023/10/28 04:52:20;;;;;;;;;;;;;;;10.16;100.00;98869.69;5075978;28;19924;-66
2023/10/28 04:55:25;;;;;;;;;;;;;;;10.13;100.00;98867.31;5075878;28;19931;-66
2023/10/28 04:58:28;;;;;;;;;;;;;;;9.95;100.00;98872.97;5076089;28;19925;-66
2023/10/28 05:01:31;;;;;;;;;;;;;;;10.01;100.00;98863.84;5075708;28;19970;-66
2023/10/28 05:04:34;;;;;;;;;;;;;;;10.02;100.00;98861.13;5075876;28;20058;-66
2023/10/28 05:07:37;;;;;;;;;;;;;;;9.92;100.00;98861.94;5075737;28;20015;-66
2023/10/28 05:10:41;;;;;;;;;;;;;;;9.88;100.00;98856.09;5075636;28;19923;-66
2023/10/28 05:13:45;;;;;;;;;;;;;;;10.02;100.00;98855.91;5075509;28;19923;-66
2023/10/28 05:16:48;;;;;;;;;;;;;;;10.06;100.00;98855.69;5075507;28;19973;-66
2023/10/28 05:19:51;;;;;;;;;;;;;;;10.07;100.00;98859.94;5075475;28;19939;-66
2023/10/28 05:22:54;;;;;;;;;;;;;;;10.07;100.00;98871.22;5075418;28;20064;-66
2023/10/28 05:25:57;;;;;;;;;;;;;;;9.96;100.00;98874.66;5075405;28;19970;-66
2023/10/28 05:29:02;;;;;;;;;;;;;;;9.97;100.00;98876.31;5075173;28;19924;-66
2023/10/28 05:32:05;;;;;;;;;;;;;;;10.10;100.00;98870.97;5075138;28;19928;-66
2023/10/28 05:35:10;;;;;;;;;;;;;;;10.05;100.00;98872.28;5075145;28;19969;-66
2023/10/28 05:38:14;;;;;;;;;;;;;;;10.05;100.00;98867.91;5074974;28;20011;-66
2023/10/28 05:41:17;;;;;;;;;;;;;;;9.99;100.00;98866.59;5075068;28;19924;-66
2023/10/28 05:44:20;;;;;;;;;;;;;;;9.90;100.00;98869.06;5074888;28;20060;-66
2023/10/28 05:47:23;;;;;;;;;;;;;;;10.07;100.00;98871.22;5074829;28;19927;-66
2023/10/28 05:50:27;;;;;;;;;;;;;;;10.10;100.00;98872.75;5074864;28;19923;-66
2023/10/28 05:53:30;;;;;;;;;;;;;;;10.06;100.00;98864.34;5073877;28;19924;-66
2023/10/28 05:56:32;;;;;;;;;;;;;;;9.87;100.00;98872.72;5075043;28;19939;-66
2023/10/28 05:59:35;;;;;;;;;;;;;;;9.84;100.00;98867.75;5074711;28;19943;-66
2023/10/28 06:02:38;;;;;;;;;;;;;;;9.88;100.00;98870.94;5074497;28;19923;-66
2023/10/28 06:05:41;;;;;;;;;;;;;;;9.96;100.00;98874.66;5073753;28;19986;-66
2023/10/28 06:08:44;;;;;;;;;;;;;;;9.99;100.00;98863.16;5072657;28;19962;-67
2023/10/28 06:11:47;;;;;;;;;;;;;;;10.00;100.00;98865.63;5072999;28;19928;-67
2023/10/28 06:14:51;;;;;;;;;;;;;;;9.97;100.00;98878.91;5072833;28;20012;-67
2023/10/28 06:17:54;;;;;;;;;;;;;;;9.98;100.00;98872.72;5072929;28;19923;-67
2023/10/28 06:20:57;;;;;;;;;;;;;;;9.94;100.00;98886.16;5071490;28;19927;-67
2023/10/28 06:24:00;;;;;;;;;;;;;;;9.93;100.00;98887.94;5071799;28;19960;-66
2023/10/28 06:27:03;;;;;;;;;;;;;;;9.97;100.00;98894.56;5071813;28;20344;-66
2023/10/28 06:30:11;;;;;;;;;;;;;;;10.00;100.00;98896.97;5077886;28;19923;-68
2023/10/28 06:33:15;;;;;;;;;;;;;;;9.98;100.00;98903.25;5079630;28;19931;-67
2023/10/28 06:36:18;;;;;;;;;;;;;;;10.08;100.00;98908.59;5072522;28;19926;-67
2023/10/28 06:39:21;;;;;;;;;;;;;;;10.04;100.00;98908.00;5072780;28;19939;-67
2023/10/28 06:42:27;;;;;;;;;;;;;;;10.06;100.00;98905.28;5071756;28;21563;-68
2023/10/28 06:45:30;;;;;;;;;;;;;;;10.08;100.00;98912.03;5072684;28;19944;-78
2023/10/28 06:52:25;;;;;;;;;;;;;;;10.22;100.00;98917.06;5070915;28;19969;-67
2023/10/28 06:55:28;;;;;;;;;;;;;;;10.23;100.00;98912.66;5072194;28;19966;-71
2023/10/28 06:58:31;;;;;;;;;;;;;;;10.30;100.00;98915.66;5072343;28;20038;-66
2023/10/28 07:01:34;;;;;;;;;;;;;;;10.35;100.00;98926.59;5072515;28;19924;-66
2023/10/28 07:04:37;;;;;;;;;;;;;;;10.42;100.00;98920.78;5071924;28;19924;-66
2023/10/28 07:07:40;;;;;;;;;;;;;;;10.37;100.00;98925.53;5072060;28;19923;-66
2023/10/28 07:10:43;;;;;;;;;;;;;;;10.14;100.00;98929.84;5071991;28;19943;-66
2023/10/28 07:13:46;;;;;;;;;;;;;;;10.32;100.00;98932.88;5072027;28;20045;-67
2023/10/28 07:16:50;;;;;;;;;;;;;;;10.37;100.00;98941.22;5071904;28;20381;-66
2023/10/28 07:19:53;;;;;;;;;;;;;;;10.15;100.00;98941.16;5072083;28;19970;-66
2023/10/28 07:22:56;;;;;;;;;;;;;;;10.41;100.00;98947.88;5071898;28;19923;-66
2023/10/28 07:26:01;;;;;;;;;;;;;;;10.46;100.00;98942.28;5071950;28;19971;-66
2023/10/28 07:29:06;;;;;;;;;;;;;;;10.59;100.00;98950.00;5071903;28;19943;-67
2023/10/28 07:32:09;;;;;;;;;;;;;;;10.75;100.00;98949.63;5071574;28;20053;-67
2023/10/28 07:35:12;;;;;;;;;;;;;;;10.65;100.00;98946.91;5072028;28;19970;-67
2023/10/28 07:38:16;;;;;;;;;;;;;;;10.84;100.00;98947.13;5072066;28;19973;-68
2023/10/28 07:41:19;;;;;;;;;;;;;;;10.93;100.00;98949.03;5071851;28;20498;-67
2023/10/28 07:44:22;;;;;;;;;;;;;;;10.85;100.00;98946.19;5071808;28;20020;-67
2023/10/28 07:47:25;;;;;;;;;;;;;;;10.78;100.00;98949.41;5071729;28;19974;-67
2023/10/28 07:50:28;;;;;;;;;;;;;;;10.90;100.00;98959.72;5071679;28;20077;-67
2023/10/28 07:53:31;;;;;;;;;;;;;;;11.02;100.00;98964.97;5071581;28;19974;-67
2023/10/28 07:56:34;;;;;;;;;;;;;;;11.09;100.00;98960.91;5071623;28;19943;-67
2023/10/28 07:59:37;;;;;;;;;;;;;;;11.14;100.00;98971.84;5071472;28;20038;-67
2023/10/28 08:02:45;;;;;;;;;;;;;;;11.11;100.00;98972.09;5072786;28;19924;-67
2023/10/28 08:05:48;;;;;;;;;;;;;;;11.01;100.00;98987.66;5075329;28;19974;-67
2023/10/28 08:08:55;;;;;;;;;;;;;;;11.09;100.00;98977.41;5075453;28;19928;-67
2023/10/28 08:11:58;;;;;;;;;;;;;;;11.21;100.00;98977.41;5075365;28;20349;-67
2023/10/28 08:15:02;;;;;;;;;;;;;;;11.14;100.00;98970.06;5075766;28;20331;-67
2023/10/28 08:18:07;;;;;;;;;;;;;;;11.19;100.00;98969.66;5089895;28;19923;-67
2023/10/28 08:21:10;;;;;;;;;;;;;;;11.28;100.00;98968.94;5094668;28;20355;-67
2023/10/28 08:24:15;;;;;;;;;;;;;;;11.28;100.00;98970.72;5095418;28;20402;-67
2023/10/28 08:27:19;;;;;;;;;;;;;;;11.45;100.00;98964.13;5095390;28;19943;-67
2023/10/28 08:30:26;;;;;;;;;;;;;;;11.40;100.00;98967.97;5095203;28;19985;-67
2023/10/28 08:33:31;;;;;;;;;;;;;;;11.38;100.00;98972.47;5082216;28;19924;-67
2023/10/28 08:36:34;;;;;;;;;;;;;;;11.46;100.00;98966.66;5081114;28;19927;-67
2023/10/28 08:39:38;;;;;;;;;;;;;;;11.50;100.00;98975.06;5087694;28;19970;-66
2023/10/28 08:42:43;;;;;;;;;;;;;;;11.43;100.00;98984.38;5077099;28;19982;-66
2023/10/28 08:45:47;;;;;;;;;;;;;;;11.60;100.00;98984.66;5083514;28;19990;-66
2023/10/28 08:48:51;;;;;;;;;;;;;;;11.60;100.00;98987.28;5084956;28;19970;-66
2023/10/28 08:51:58;;;;;;;;;;;;;;;11.64;100.00;98991.31;5077046;28;20021;-66
2023/10/28 08:55:03;;;;;;;;;;;;;;;11.85;100.00;98985.34;5076772;28;19971;-66
2023/10/28 08:58:06;;;;;;;;;;;;;;;11.83;100.00;98993.25;5094788;28;19967;-66
2023/10/28 09:01:09;;;;;;;;;;;;;;;11.64;100.00;99000.97;5094574;28;19941;-67
2023/10/28 09:04:14;;;;;;;;;;;;;;;11.60;100.00;99003.00;5074459;28;19922;-67
2023/10/28 09:07:17;;;;;;;;;;;;;;;11.67;96.38;99008.56;5073417;28;20237;-67
2023/10/28 09:10:21;;;;;;;;;;;;;;;11.76;97.92;99010.44;5079090;28;20057;-68
2023/10/28 09:13:24;;;;;;;;;;;;;;;11.66;96.03;99014.75;5074137;28;19927;-68
2023/10/28 09:16:27;;;;;;;;;;;;;;;11.58;97.13;99011.91;5081648;28;20295;-68
2023/10/28 09:19:31;;;;;;;;;;;;;;;11.63;95.21;99015.84;5086760;28;20407;-67
2023/10/28 09:22:39;;;;;;;;;;;;;;;11.68;93.86;99014.63;5092615;28;20347;-67
2023/10/28 09:25:42;;;;;;;;;;;;;;;11.89;92.10;99014.72;5094054;28;19942;-67
2023/10/28 09:28:45;;;;;;;;;;;;;;;11.82;92.82;99017.81;5093966;28;20041;-67
2023/10/28 09:31:49;;;;;;;;;;;;;;;11.97;91.90;99007.06;5093898;28;19997;-67
2023/10/28 09:34:53;;;;;;;;;;;;;;;12.03;92.44;99011.81;5094438;28;20342;-67
2023/10/28 09:37:56;;;;;;;;;;;;;;;12.22;89.91;99011.94;5093831;28;20007;-67
2023/10/28 09:41:01;;;;;;;;;;;;;;;12.39;89.40;99007.09;5094036;28;19974;-67
2023/10/28 09:44:05;;;;;;;;;;;;;;;12.41;90.01;99015.63;5093740;28;19927;-67
2023/10/28 09:47:10;;;;;;;;;;;;;;;12.48;88.81;99017.63;5093799;28;19974;-67
2023/10/28 09:50:14;;;;;;;;;;;;;;;12.47;88.22;99005.47;5092614;28;19924;-67
2023/10/28 09:53:22;;;;;;;;;;;;;;;12.31;90.58;99011.16;5093629;28;19927;-67
2023/10/28 09:56:28;;;;;;;;;;;;;;;12.38;89.61;99021.13;5093434;28;19943;-67
2023/10/28 09:59:33;;;;;;;;;;;;;;;12.30;89.92;99024.41;5093758;28;19998;-67
2023/10/28 10:02:52;;;;;;;;;;;;;;;12.34;90.22;99031.88;5093576;28;19927;-67
2023/10/28 10:05:56;;;;;;;;;;;;;;;12.25;89.75;99035.28;5092626;28;20490;-67
2023/10/28 10:18:31;;;;;;;;;;;;;;;12.46;89.67;99039.69;5114335;28;19916;-67
2023/10/28 10:21:35;;;;;;;;;;;;;;;12.34;89.18;99039.72;5115322;28;20428;-68
2023/10/28 10:24:49;;;;;;;;;;;;;;;12.32;89.15;99040.84;5114381;28;19941;-67
2023/10/28 10:27:53;;;;;;;;;;;;;;;12.43;90.78;99039.94;5115232;28;20053;-66
2023/10/28 10:31:07;;;;;;;;;;;;;;;12.45;89.18;99035.41;5114634;28;20317;-67
2023/10/28 10:34:12;;;;;;;;;;;;;;;12.55;87.95;99036.28;5115037;28;19987;-67
2023/10/28 10:37:23;;;;;;;;;;;;;;;12.67;86.64;99042.31;5114997;28;19923;-68
2023/10/28 10:40:31;;;;;;;;;;;;;;;12.80;86.12;99029.81;5102067;28;19969;-68
2023/10/28 10:43:38;;;;;;;;;;;;;;;13.06;84.64;99021.50;5114648;28;19960;-66
2023/10/28 10:46:42;;;;;;;;;;;;;;;13.09;85.71;99022.06;5114435;28;19973;-66
2023/10/28 10:49:49;;;;;;;;;;;;;;;13.05;83.76;99020.66;5114807;28;19961;-65
2023/10/28 10:52:54;;;;;;;;;;;;;;;12.89;82.18;99030.78;5114742;28;20331;-67
2023/10/28 10:55:59;;;;;;;;;;;;;;;12.70;84.18;99032.38;5102048;28;19939;-69
2023/10/28 10:59:03;;;;;;;;;;;;;;;12.80;84.77;99041.13;5114685;28;20421;-69
2023/10/28 11:02:10;;;;;;;;;;;;;;;12.76;84.11;99037.09;5114419;28;19922;-69
2023/10/28 11:05:15;;;;;;;;;;;;;;;12.75;84.90;99034.59;5113827;28;20386;-71
2023/10/28 11:08:20;;;;;;;;;;;;;;;12.76;84.11;99031.88;5114510;28;19922;-70
2023/10/28 11:11:29;;;;;;;;;;;;;;;12.80;82.58;99027.19;5114413;28;19939;-71
2023/10/28 11:14:34;;;;;;;;;;;;;;;12.85;83.00;99026.78;5114227;28;20465;-69
2023/10/28 11:17:40;;;;;;;;;;;;;;;12.82;83.94;99019.16;5114032;28;20494;-74
2023/10/28 11:20:45;;;;;;;;;;;;;;;12.88;82.94;99018.66;5101371;28;20010;-68
2023/10/28 11:23:50;;;;;;;;;;;;;;;12.87;81.38;99017.00;5113833;28;19968;-68
2023/10/28 11:26:57;;;;;;;;;;;;;;;12.94;82.14;99015.50;5113564;28;19941;-69
2023/10/28 11:30:08;;;;;;;;;;;;;;;13.10;82.68;99013.19;5114118;28;19922;-73
2023/10/28 11:33:14;;;;;;;;;;;;;;;13.11;80.01;99012.22;5111678;28;19926;-70
2023/10/28 11:40:05;;;;;;;;;;;;;;;13.04;80.61;99013.72;5119113;27;19939;-70
2023/10/28 11:43:11;;;;;;;;;;;;;;;13.11;80.08;99014.84;5117742;27;19944;-70
2023/10/28 11:46:15;;;;;;;;;;;;;;;13.09;79.79;99010.72;5117602;28;19927;-71
2023/10/28 11:49:20;;;;;;;;;;;;;;;13.08;80.82;99009.03;5117435;27;19942;-71
2023/10/28 11:52:25;;;;;;;;;;;;;;;13.10;81.17;99010.56;5107218;27;19923;-68
2023/10/28 11:55:36;;;;;;;;;;;;;;;12.95;84.01;99014.53;5119574;27;19923;-69
2023/10/28 11:58:50;;;;;;;;;;;;;;;12.80;86.32;99022.75;5107972;27;20024;-71
2023/10/28 12:01:55;;;;;;;;;;;;;;;12.74;87.50;99015.41;5119189;28;19969;-69
2023/10/28 12:05:00;;;;;;;;;;;;;;;12.79;88.72;99015.88;5104412;28;20024;-69
2023/10/28 12:08:12;;;;;;;;;;;;;;;12.61;88.89;99021.84;5118812;27;19966;-69
2023/10/28 12:11:17;;;;;;;;;;;;;;;12.77;89.53;99020.41;5119402;27;19926;-69
2023/10/28 12:14:25;;;;;;;;;;;;;;;12.77;90.05;99012.53;5118119;27;19926;-71
2023/10/28 12:17:35;;;;;;;;;;;;;;;12.68;90.67;99022.97;5118491;27;20028;-69
2023/10/28 12:20:42;;;;;;;;;;;;;;;12.72;89.41;99025.19;5092795;27;20409;-71
2023/10/28 12:23:49;;;;;;;;;;;;;;;12.66;89.40;99023.09;5118265;27;19927;-68
2023/10/28 12:26:53;;;;;;;;;;;;;;;12.66;88.60;99023.09;5118063;27;19927;-70
2023/10/28 12:30:00;;;;;;;;;;;;;;;12.77;87.38;99022.19;5105444;27;19926;-69
2023/10/28 12:33:09;;;;;;;;;;;;;;;12.79;90.43;99017.63;5119315;28;19934;-72
2023/10/28 12:36:18;;;;;;;;;;;;;;;12.92;87.15;99025.28;5118123;27;20481;-73
2023/10/28 12:39:27;;;;;;;;;;;;;;;13.05;85.88;99015.41;5106359;27;19997;-75
2023/10/28 12:42:38;;;;;;;;;;;;;;;13.35;84.54;99021.59;5105082;28;20346;-72
2023/10/28 12:45:46;;;;;;;;;;;;;;;13.32;83.71;99021.88;5106949;27;20068;-72
2023/10/28 12:48:51;;;;;;;;;;;;;;;13.34;84.79;99031.28;5114289;28;19923;-73
2023/10/28 12:52:00;;;;;;;;;;;;;;;13.15;85.77;99029.41;5114195;28;19969;-73
2023/10/28 12:55:07;;;;;;;;;;;;;;;13.25;86.03;99032.91;5103638;28;19927;-74
2023/10/28 12:58:18;;;;;;;;;;;;;;;13.11;86.72;99025.34;5114806;28;19950;-71
2023/10/28 13:01:26;;;;;;;;;;;;;;;13.32;84.44;99032.38;5115518;28;20005;-69
2023/10/28 13:04:31;;;;;;;;;;;;;;;13.21;85.72;99031.50;5113305;28;19965;-74
2023/10/28 13:07:41;;;;;;;;;;;;;;;13.24;84.61;99031.25;5114957;28;20477;-83
2023/10/28 13:10:46;;;;;;;;;;;;;;;13.14;85.74;99045.25;5115454;28;19939;-68
2023/10/28 13:13:51;;;;;;;;;;;;;;;13.10;86.03;99057.81;5113550;28;19923;-69
2023/10/28 13:16:55;;;;;;;;;;;;;;;12.91;85.59;99050.69;5103098;28;19945;-68
2023/10/28 13:20:00;;;;;;;;;;;;;;;12.92;84.88;99046.25;5113347;28;20271;-70
2023/10/28 13:23:04;;;;;;;;;;;;;;;13.15;85.31;99037.28;5112955;28;19931;-68
2023/10/28 13:26:10;;;;;;;;;;;;;;;13.25;86.68;99038.16;5111808;28;20390;-68
2023/10/28 13:29:17;;;;;;;;;;;;;;;13.11;86.74;99046.34;5113123;28;20512;-67
2023/10/28 13:32:22;;;;;;;;;;;;;;;13.18;89.12;99041.44;5113830;28;19927;-69
2023/10/28 13:35:30;;;;;;;;;;;;;;;13.20;85.92;99037.69;5112130;28;19923;-68
2023/10/28 13:38:42;;;;;;;;;;;;;;;13.15;84.61;99034.66;5113418;28;19923;-68
2023/10/28 13:41:46;;;;;;;;;;;;;;;13.08;83.79;99041.41;5114749;28;19940;-68
2023/10/28 13:44:51;;;;;;;;;;;;;;;13.06;86.05;99035.44;5112531;28;19998;-72
2023/10/28 13:47:55;;;;;;;;;;;;;;;13.14;84.75;99045.25;5113617;28;19938;-73
2023/10/28 13:50:59;;;;;;;;;;;;;;;13.16;85.98;99038.91;5100865;28;19995;-69
2023/10/28 13:54:03;;;;;;;;;;;;;;;12.99;86.73;99048.25;5114206;28;19938;-68
2023/10/28 13:57:11;;;;;;;;;;;;;;;13.07;86.37;99036.25;5115100;28;19926;-67
2023/10/28 14:00:16;;;;;;;;;;;;;;;13.01;86.67;99045.47;5111146;28;19926;-68
2023/10/28 14:03:22;;;;;;;;;;;;;;;13.22;86.59;99040.19;5113340;28;19945;-68
2023/10/28 14:06:26;;;;;;;;;;;;;;;13.32;84.15;99032.38;5114017;28;19926;-69
2023/10/28 14:09:31;;;;;;;;;;;;;;;13.47;84.36;99036.28;5112130;28;19968;-67
2023/10/28 14:12:36;;;;;;;;;;;;;;;13.85;83.11;99032.88;5112907;28;19970;-67
2023/10/28 14:15:42;;;;;;;;;;;;;;;13.81;82.03;99031.47;5112769;28;19923;-68
2023/10/28 14:18:50;;;;;;;;;;;;;;;13.77;81.28;99024.03;5114356;28;19926;-67
2023/10/28 14:21:54;;;;;;;;;;;;;;;13.64;82.37;99033.00;5112337;28;20353;-66
2023/10/28 14:25:00;;;;;;;;;;;;;;;13.44;83.42;99034.75;5113153;28;19939;-67
2023/10/28 14:28:04;;;;;;;;;;;;;;;13.44;82.87;99041.81;5113995;28;19969;-67
2023/10/28 14:31:09;;;;;;;;;;;;;;;13.34;83.80;99046.22;5113748;28;20328;-68
2023/10/28 14:34:15;;;;;;;;;;;;;;;13.23;84.28;99052.34;5112056;28;20043;-67
2023/10/28 14:37:18;;;;;;;;;;;;;;;13.17;83.55;99051.06;5112798;28;19930;-68
2023/10/28 14:40:23;;;;;;;;;;;;;;;13.15;86.47;99053.00;5112773;28;19969;-67
2023/10/28 14:43:27;;;;;;;;;;;;;;;13.21;89.05;99052.50;5112861;28;20374;-68
2023/10/28 14:46:31;;;;;;;;;;;;;;;13.11;86.33;99050.78;5111178;28;20295;-67
2023/10/28 14:49:35;;;;;;;;;;;;;;;13.07;86.26;99050.22;5111785;28;20014;-66
2023/10/28 14:52:46;;;;;;;;;;;;;;;12.91;86.12;99050.69;5112660;28;19938;-77
2023/10/28 14:55:50;;;;;;;;;;;;;;;12.86;87.17;99054.66;5111269;28;19930;-67
2023/10/28 14:58:54;;;;;;;;;;;;;;;12.69;86.99;99051.69;5111874;28;19938;-68
2023/10/28 15:01:59;;;;;;;;;;;;;;;12.64;85.44;99048.63;5112009;28;19992;-67
2023/10/28 15:05:05;;;;;;;;;;;;;;;12.78;87.29;99040.41;5100740;28;19927;-81
2023/10/28 15:08:10;;;;;;;;;;;;;;;12.87;86.50;99049.31;5114000;28;20454;-73
2023/10/28 15:11:14;;;;;;;;;;;;;;;12.70;86.42;99045.50;5111327;28;19938;-69
2023/10/28 15:14:19;;;;;;;;;;;;;;;12.64;85.78;99038.13;5099792;28;19923;-67
2023/10/28 15:17:23;;;;;;;;;;;;;;;12.52;86.06;99033.94;5112191;28;20179;-68
2023/10/28 15:20:29;;;;;;;;;;;;;;;12.63;86.23;99036.47;5112928;28;20377;-67
2023/10/28 15:23:33;;;;;;;;;;;;;;;12.49;86.30;99034.19;5112303;28;20022;-68
2023/10/28 15:26:39;;;;;;;;;;;;;;;12.44;86.48;99033.72;5112650;28;20556;-68
2023/10/28 15:29:44;;;;;;;;;;;;;;;12.63;86.85;99039.06;5110714;28;19927;-74
2023/10/28 15:32:48;;;;;;;;;;;;;;;12.60;86.90;99036.72;5114392;28;20390;-66
2023/10/28 15:35:53;;;;;;;;;;;;;;;12.45;87.11;99038.03;5113933;28;19922;-68
2023/10/28 15:38:58;;;;;;;;;;;;;;;12.50;86.81;99038.44;5113739;28;20448;-67
2023/10/28 15:42:02;;;;;;;;;;;;;;;12.48;88.58;99040.41;5114080;28;19928;-68
2023/10/28 15:45:07;;;;;;;;;;;;;;;12.47;87.25;99041.34;5113676;28;19973;-68
2023/10/28 15:48:11;;;;;;;;;;;;;;;12.61;87.44;99043.66;5113430;28;19923;-68
2023/10/28 15:51:16;;;;;;;;;;;;;;;12.53;87.78;99040.81;5111865;28;20504;-68
2023/10/28 15:54:20;;;;;;;;;;;;;;;12.47;87.96;99047.41;5112882;28;19961;-68
2023/10/28 15:57:25;;;;;;;;;;;;;;;12.47;88.49;99050.03;5113977;28;19961;-68
2023/10/28 16:00:32;;;;;;;;;;;;;;;12.47;87.90;99054.44;5113543;28;19923;-68
2023/10/28 16:03:36;;;;;;;;;;;;;;;12.64;91.77;99053.88;5113897;28;19923;-69
2023/10/28 16:09:43;;;;;;;;;;;;;;;12.57;91.78;99061.44;4989915;23;19926;-72
2023/10/28 16:12:49;;;;;;;;;;;;;;;12.60;91.38;99056.88;4982166;28;20012;-71
2023/10/28 16:15:55;;;;;;;;;;;;;;;12.72;93.79;99051.41;4984090;28;19976;-71